Time;durP1;ratioP1;P1;durP2;ratioP2;P2;SDS_P1;SDS_P2;PMS_P1;PMS_P2;Temp;Humidity;BMP_temperature;BMP_pressure;BME280_temperature;BME280_humidity;BME280_pressure;Samples;Min_cycle;Max_cycle;Signal;HPM_P1;HPM_P2
2023/07/02 00:01:48;;;;;;;1.10;1.00;;;19.90;99.90;;;;;;4924997;29;20027;-63
2023/07/02 00:04:16;;;;;;;1.33;1.20;;;19.80;99.90;;;;;;4925992;29;20027;-63
2023/07/02 00:06:46;;;;;;;1.00;1.00;;;19.80;99.90;;;;;;4925047;29;20048;-63
2023/07/02 00:09:12;;;;;;;3.00;1.40;;;19.80;99.90;;;;;;4923765;29;20039;-63
2023/07/02 00:11:39;;;;;;;3.20;1.30;;;19.80;99.90;;;;;;4920145;29;20771;-63
2023/07/02 00:14:06;;;;;;;4.18;1.58;;;19.80;99.90;;;;;;4921467;29;20036;-63
2023/07/02 00:16:32;;;;;;;1.60;1.50;;;19.80;99.90;;;;;;4917652;29;20050;-63
2023/07/02 00:18:59;;;;;;;1.60;1.40;;;19.80;99.90;;;;;;4923195;29;20039;-63
2023/07/02 00:21:27;;;;;;;1.75;1.60;;;19.80;99.90;;;;;;4926024;29;20423;-63
2023/07/02 00:23:57;;;;;;;1.73;1.63;;;19.80;99.90;;;;;;4924451;29;20046;-63
2023/07/02 00:26:24;;;;;;;1.52;1.40;;;19.70;99.90;;;;;;4921610;29;20036;-63
2023/07/02 00:28:51;;;;;;;1.95;1.77;;;19.70;99.90;;;;;;4921305;29;20036;-63
2023/07/02 00:31:17;;;;;;;2.08;1.73;;;19.70;99.90;;;;;;4921093;29;20044;-63
2023/07/02 00:33:43;;;;;;;2.00;1.90;;;19.60;99.90;;;;;;4916267;29;20043;-63
2023/07/02 00:36:14;;;;;;;2.20;2.05;;;19.60;99.90;;;;;;4922903;29;20088;-63
2023/07/02 00:38:45;;;;;;;3.95;2.13;;;19.60;99.90;;;;;;4907980;29;20484;-63
2023/07/02 00:41:11;;;;;;;2.10;1.90;;;19.60;99.90;;;;;;4924636;29;20083;-63
2023/07/02 00:43:43;;;;;;;2.40;2.20;;;19.50;99.90;;;;;;4921057;29;20114;-63
2023/07/02 00:46:20;;;;;;;2.10;1.90;;;19.50;99.90;;;;;;4921145;29;20043;-63
2023/07/02 00:48:53;;;;;;;3.85;1.83;;;19.50;99.90;;;;;;4917375;29;20450;-63
2023/07/02 00:51:27;;;;;;;1.92;1.83;;;19.50;99.90;;;;;;4908113;29;20040;-63
2023/07/02 00:53:57;;;;;;;2.42;2.15;;;19.50;99.90;;;;;;4919825;29;20035;-63
2023/07/02 00:56:24;;;;;;;2.17;1.98;;;19.50;99.90;;;;;;4925470;29;20032;-63
2023/07/02 00:58:51;;;;;;;3.70;2.67;;;19.50;99.90;;;;;;4924518;29;20036;-63
2023/07/02 01:01:18;;;;;;;3.10;2.80;;;19.50;99.90;;;;;;4923321;29;20111;-63
2023/07/02 01:04:12;;;;;;;2.75;2.30;;;19.50;99.90;;;;;;4919729;29;20513;-63
2023/07/02 01:06:40;;;;;;;2.65;2.45;;;19.50;99.90;;;;;;4902183;29;20855;-63
2023/07/02 01:09:07;;;;;;;3.63;2.33;;;19.50;99.90;;;;;;4919813;29;20039;-63
2023/07/02 01:11:42;;;;;;;5.50;2.92;;;19.50;99.90;;;;;;4919232;29;20051;-63
2023/07/02 01:14:19;;;;;;;3.15;2.83;;;19.50;99.90;;;;;;4921479;29;20042;-63
2023/07/02 01:16:47;;;;;;;3.22;2.92;;;19.60;99.90;;;;;;4907806;29;20040;-63
2023/07/02 01:19:21;;;;;;;5.28;3.13;;;19.60;99.90;;;;;;4908622;29;20027;-63
2023/07/02 01:21:49;;;;;;;4.05;2.75;;;19.50;99.90;;;;;;4919986;29;20111;-63
2023/07/02 01:24:17;;;;;;;5.60;3.00;;;19.50;99.90;;;;;;4920489;29;20500;-63
2023/07/02 01:26:45;;;;;;;3.90;3.00;;;19.50;99.90;;;;;;4917069;29;20036;-63
2023/07/02 01:29:18;;;;;;;3.05;2.75;;;19.50;99.90;;;;;;4902519;29;20555;-63
2023/07/02 01:31:44;;;;;;;3.92;3.08;;;19.50;99.90;;;;;;4924715;29;20445;-63
2023/07/02 01:34:11;;;;;;;3.08;2.83;;;19.50;99.90;;;;;;4924145;29;20478;-63
2023/07/02 01:36:37;;;;;;;3.85;2.70;;;19.50;99.90;;;;;;4921298;29;20035;-63
2023/07/02 01:39:03;;;;;;;4.43;2.80;;;19.50;99.90;;;;;;4904900;29;20027;-63
2023/07/02 01:41:38;;;;;;;4.65;2.67;;;19.50;99.90;;;;;;4918811;29;20027;-63
2023/07/02 01:44:04;;;;;;;3.63;2.92;;;19.50;99.90;;;;;;4909733;29;20032;-63
2023/07/02 01:46:29;;;;;;;4.57;2.78;;;19.50;99.90;;;;;;4918886;29;20095;-63
2023/07/02 01:48:55;;;;;;;3.20;2.80;;;19.40;99.90;;;;;;4923323;29;20043;-63
2023/07/02 01:51:21;;;;;;;3.13;2.70;;;19.40;99.90;;;;;;4923826;29;20143;-63
2023/07/02 01:53:47;;;;;;;3.58;2.50;;;19.40;99.90;;;;;;4908805;29;20067;-63
2023/07/02 01:56:12;;;;;;;3.78;2.60;;;19.40;99.90;;;;;;4922123;29;20150;-63
2023/07/02 01:58:38;;;;;;;2.42;2.10;;;19.40;99.90;;;;;;4916766;29;20085;-63
2023/07/02 02:01:04;;;;;;;2.83;2.50;;;19.30;99.90;;;;;;4902412;29;20035;-63
2023/07/02 02:03:30;;;;;;;2.53;2.33;;;19.30;99.90;;;;;;4914151;29;20051;-63
2023/07/02 02:05:56;;;;;;;3.20;2.33;;;19.30;99.90;;;;;;4907246;29;20036;-63
2023/07/02 02:08:21;;;;;;;4.75;2.42;;;19.30;99.90;;;;;;4906854;29;20436;-63
2023/07/02 02:10:47;;;;;;;4.38;2.45;;;19.30;99.90;;;;;;4920467;29;20563;-63
2023/07/02 02:13:13;;;;;;;5.57;2.60;;;19.30;99.90;;;;;;4908358;29;20471;-62
2023/07/02 02:15:40;;;;;;;3.05;2.40;;;19.20;99.90;;;;;;4906248;29;20096;-63
2023/07/02 02:18:06;;;;;;;4.63;2.80;;;19.20;99.90;;;;;;4909071;29;20107;-63
2023/07/02 02:20:32;;;;;;;3.50;2.42;;;19.20;99.90;;;;;;4914658;29;20055;-63
2023/07/02 02:22:58;;;;;;;2.65;2.42;;;19.20;99.90;;;;;;4921196;29;20110;-63
2023/07/02 02:25:24;;;;;;;5.28;3.10;;;19.20;99.90;;;;;;4907301;29;20479;-63
2023/07/02 02:27:50;;;;;;;3.85;2.60;;;19.20;99.90;;;;;;4922302;29;20479;-63
2023/07/02 02:30:16;;;;;;;3.55;2.70;;;19.20;99.90;;;;;;4905842;29;20036;-63
2023/07/02 02:32:42;;;;;;;6.53;2.97;;;19.20;99.90;;;;;;4907055;29;20040;-63
2023/07/02 02:35:10;;;;;;;2.60;2.40;;;19.20;99.90;;;;;;4905026;29;20161;-63
2023/07/02 02:37:39;;;;;;;2.80;2.60;;;19.10;99.90;;;;;;4909069;29;20476;-63
2023/07/02 02:40:09;;;;;;;4.10;2.70;;;19.10;99.90;;;;;;4905135;29;20028;-63
2023/07/02 02:42:36;;;;;;;3.72;3.00;;;19.10;99.90;;;;;;4911011;29;20034;-63
2023/07/02 02:45:03;;;;;;;3.50;3.20;;;19.10;99.90;;;;;;4922589;29;20124;-63
2023/07/02 02:47:29;;;;;;;5.25;3.10;;;19.10;99.90;;;;;;4923489;29;20031;-63
2023/07/02 02:49:55;;;;;;;3.05;2.63;;;19.00;99.90;;;;;;4923986;29;20060;-62
2023/07/02 02:52:21;;;;;;;3.22;2.95;;;19.10;99.90;;;;;;4910512;29;20031;-63
2023/07/02 02:54:47;;;;;;;3.47;2.30;;;19.00;99.90;;;;;;4920706;29;20404;-62
2023/07/02 02:57:13;;;;;;;3.70;2.42;;;19.00;99.90;;;;;;4927024;29;20114;-62
2023/07/02 02:59:39;;;;;;;3.67;2.53;;;19.00;99.90;;;;;;4927561;29;20099;-63
2023/07/02 03:02:05;;;;;;;3.80;2.75;;;18.90;99.90;;;;;;4910617;29;20083;-63
2023/07/02 03:04:31;;;;;;;3.35;2.45;;;18.90;99.90;;;;;;4910402;29;20036;-62
2023/07/02 03:06:56;;;;;;;5.30;2.67;;;18.90;99.90;;;;;;4909196;29;20047;-63
2023/07/02 03:09:22;;;;;;;3.13;2.67;;;18.90;99.90;;;;;;4922352;29;20492;-62
2023/07/02 03:11:48;;;;;;;2.90;2.55;;;18.90;99.90;;;;;;4920489;29;20535;-63
2023/07/02 03:14:16;;;;;;;3.92;2.90;;;18.90;99.90;;;;;;4923569;29;20036;-63
2023/07/02 03:16:45;;;;;;;2.92;2.35;;;18.90;99.90;;;;;;4927868;29;20046;-63
2023/07/02 03:19:11;;;;;;;2.63;2.42;;;18.90;99.90;;;;;;4930715;29;20028;-62
2023/07/02 03:21:36;;;;;;;2.90;2.00;;;18.90;99.90;;;;;;4925231;29;20044;-62
2023/07/02 03:24:02;;;;;;;3.50;2.40;;;18.90;99.90;;;;;;4920831;29;20388;-62
2023/07/02 03:26:28;;;;;;;3.78;2.90;;;18.90;99.90;;;;;;4922675;29;20059;-62
2023/07/02 03:28:54;;;;;;;4.43;2.55;;;18.90;99.90;;;;;;4921026;29;20032;-63
2023/07/02 03:31:19;;;;;;;3.53;1.92;;;18.90;99.90;;;;;;4919820;29;20049;-62
2023/07/02 03:33:45;;;;;;;3.75;2.55;;;18.90;99.90;;;;;;4921834;29;20027;-62
2023/07/02 03:36:11;;;;;;;2.75;2.53;;;18.90;99.90;;;;;;4926863;29;20059;-63
2023/07/02 03:38:36;;;;;;;7.20;2.50;;;18.90;99.90;;;;;;4924526;29;20058;-63
2023/07/02 03:41:02;;;;;;;2.30;2.10;;;18.90;99.90;;;;;;4924601;29;20112;-63
2023/07/02 03:43:28;;;;;;;5.47;2.50;;;18.90;99.90;;;;;;4921521;29;20130;-63
2023/07/02 03:45:54;;;;;;;4.53;2.30;;;18.90;99.90;;;;;;4921175;29;20071;-63
2023/07/02 03:48:19;;;;;;;2.55;1.80;;;18.90;99.90;;;;;;4923595;29;20059;-63
2023/07/02 03:50:45;;;;;;;2.78;1.90;;;18.90;99.90;;;;;;4921876;29;20027;-63
2023/07/02 03:53:11;;;;;;;3.10;2.50;;;18.80;99.90;;;;;;4924499;29;20040;-62
2023/07/02 03:55:37;;;;;;;2.58;2.15;;;18.90;99.90;;;;;;4922716;29;20039;-62
2023/07/02 03:58:02;;;;;;;3.58;2.08;;;18.90;99.90;;;;;;4920385;29;20039;-63
2023/07/02 04:00:28;;;;;;;2.40;2.20;;;18.90;99.90;;;;;;4922584;29;20040;-63
2023/07/02 04:02:54;;;;;;;3.08;2.33;;;18.90;99.90;;;;;;4920925;29;20088;-63
2023/07/02 04:05:20;;;;;;;3.92;2.35;;;18.90;99.90;;;;;;4920223;29;20039;-63
2023/07/02 04:07:46;;;;;;;4.30;2.30;;;18.90;99.90;;;;;;4921474;29;20039;-63
2023/07/02 04:10:11;;;;;;;2.63;2.38;;;18.90;99.90;;;;;;4927058;29;20031;-63
2023/07/02 04:12:37;;;;;;;2.75;2.03;;;18.90;99.90;;;;;;4924746;29;20040;-63
2023/07/02 04:15:04;;;;;;;5.22;2.67;;;19.00;99.90;;;;;;4924879;29;20084;-63
2023/07/02 04:17:30;;;;;;;2.38;2.00;;;19.00;99.90;;;;;;4921902;29;20107;-63
2023/07/02 04:19:57;;;;;;;4.95;1.95;;;19.00;99.90;;;;;;4921807;29;20834;-63
2023/07/02 04:22:23;;;;;;;2.50;2.30;;;19.00;99.90;;;;;;4919857;29;20067;-63
2023/07/02 04:24:49;;;;;;;2.67;2.05;;;19.10;99.90;;;;;;4918534;29;20056;-63
2023/07/02 04:27:17;;;;;;;4.15;2.00;;;19.10;99.90;;;;;;4923644;29;20035;-63
2023/07/02 04:29:44;;;;;;;3.55;2.30;;;19.10;99.90;;;;;;4924847;29;20039;-63
2023/07/02 04:32:10;;;;;;;3.35;2.50;;;19.10;99.90;;;;;;4924573;29;20523;-63
2023/07/02 04:34:36;;;;;;;3.95;2.33;;;19.20;99.90;;;;;;4921774;29;20028;-63
2023/07/02 04:37:06;;;;;;;5.03;2.47;;;19.20;99.90;;;;;;4922468;29;20043;-63
2023/07/02 04:39:32;;;;;;;2.83;2.42;;;19.30;99.90;;;;;;4919423;29;20422;-63
2023/07/02 04:41:58;;;;;;;3.78;2.53;;;19.30;99.90;;;;;;4922179;29;20028;-63
2023/07/02 04:44:30;;;;;;;2.90;2.38;;;19.30;99.90;;;;;;4919595;29;20050;-63
2023/07/02 04:47:00;;;;;;;3.40;2.30;;;19.30;99.90;;;;;;4925232;29;20036;-63
2023/07/02 04:49:26;;;;;;;2.97;2.15;;;19.40;99.90;;;;;;4921986;29;20515;-63
2023/07/02 04:51:53;;;;;;;3.40;2.20;;;19.40;99.90;;;;;;4921752;29;20088;-63
2023/07/02 04:54:22;;;;;;;4.40;2.20;;;19.40;99.90;;;;;;4922515;29;20038;-63
2023/07/02 04:56:48;;;;;;;5.55;2.40;;;19.50;99.90;;;;;;4919252;29;20126;-63
2023/07/02 04:59:15;;;;;;;3.63;2.13;;;19.50;99.90;;;;;;4919919;29;20032;-63
2023/07/02 05:01:41;;;;;;;2.53;2.28;;;19.60;99.90;;;;;;4919999;29;20031;-63
2023/07/02 05:04:11;;;;;;;4.25;2.38;;;19.60;99.90;;;;;;4925723;29;20039;-63
2023/07/02 05:06:37;;;;;;;4.70;2.38;;;19.60;99.90;;;;;;4923445;29;20046;-63
2023/07/02 05:09:03;;;;;;;4.05;2.20;;;19.70;99.90;;;;;;4923747;29;20045;-63
2023/07/02 05:11:29;;;;;;;2.20;1.98;;;19.70;99.90;;;;;;4921338;29;20039;-63
2023/07/02 05:13:54;;;;;;;3.25;2.20;;;19.70;99.90;;;;;;4919909;29;20408;-63
2023/07/02 05:16:20;;;;;;;5.80;2.40;;;19.70;99.90;;;;;;4919162;29;20036;-64
2023/07/02 05:18:46;;;;;;;2.38;2.17;;;19.80;99.90;;;;;;4917037;29;20730;-63
2023/07/02 05:21:12;;;;;;;4.57;2.30;;;19.80;99.90;;;;;;4925933;29;20031;-64
2023/07/02 05:23:37;;;;;;;2.25;1.92;;;19.90;99.90;;;;;;4923628;29;20076;-63
2023/07/02 05:26:03;;;;;;;3.22;1.90;;;19.90;99.90;;;;;;4923458;29;20039;-63
2023/07/02 05:28:29;;;;;;;5.10;2.10;;;20.00;99.90;;;;;;4921032;29;20038;-63
2023/07/02 05:30:55;;;;;;;5.45;1.90;;;20.00;99.90;;;;;;4920390;29;20462;-63
2023/07/02 05:33:22;;;;;;;2.25;1.85;;;20.00;99.90;;;;;;4919160;29;20070;-64
2023/07/02 05:35:48;;;;;;;4.07;1.92;;;20.10;99.90;;;;;;4917265;29;20445;-63
2023/07/02 05:38:14;;;;;;;3.38;2.15;;;20.00;99.90;;;;;;4922498;29;20032;-63
2023/07/02 05:40:40;;;;;;;2.70;1.92;;;19.90;99.90;;;;;;4923914;29;20481;-63
2023/07/02 05:43:05;;;;;;;5.43;2.33;;;19.80;99.90;;;;;;4923554;29;20063;-63
2023/07/02 05:45:31;;;;;;;4.38;2.20;;;19.70;99.90;;;;;;4918860;29;20092;-63
2023/07/02 05:47:57;;;;;;;4.75;1.73;;;19.70;99.90;;;;;;4920911;29;20036;-63
2023/07/02 05:50:23;;;;;;;3.90;1.65;;;19.70;99.90;;;;;;4919549;29;20035;-63
2023/07/02 05:52:49;;;;;;;4.97;1.92;;;19.70;99.90;;;;;;4917357;29;20052;-63
2023/07/02 05:55:15;;;;;;;2.75;1.90;;;19.70;99.90;;;;;;4918630;29;20074;-63
2023/07/02 05:57:40;;;;;;;3.45;2.13;;;19.80;99.90;;;;;;4924958;29;20035;-63
2023/07/02 06:00:07;;;;;;;4.22;2.03;;;20.00;99.90;;;;;;4924401;29;20036;-63
2023/07/02 06:02:37;;;;;;;2.17;1.58;;;20.10;99.90;;;;;;4921031;29;20043;-63
2023/07/02 06:05:04;;;;;;;4.47;1.70;;;20.30;99.90;;;;;;4922055;29;20028;-63
2023/07/02 06:07:30;;;;;;;4.70;1.83;;;20.30;99.90;;;;;;4922363;29;20094;-64
2023/07/02 06:09:56;;;;;;;1.80;1.70;;;20.30;99.90;;;;;;4922443;29;20785;-63
2023/07/02 06:12:22;;;;;;;3.83;1.95;;;20.30;99.90;;;;;;4921542;29;20080;-63
2023/07/02 06:14:48;;;;;;;6.28;1.88;;;20.30;99.90;;;;;;4928453;29;20043;-63
2023/07/02 06:17:15;;;;;;;2.88;1.73;;;20.30;99.90;;;;;;4926518;29;20040;-62
2023/07/02 06:19:40;;;;;;;5.38;1.90;;;20.30;99.90;;;;;;4924813;29;20039;-63
2023/07/02 06:22:06;;;;;;;5.22;1.92;;;20.30;99.90;;;;;;4925732;29;20032;-64
2023/07/02 06:24:32;;;;;;;3.60;1.90;;;20.40;99.90;;;;;;4922734;29;20519;-62
2023/07/02 06:26:58;;;;;;;2.42;1.80;;;20.40;99.90;;;;;;4922531;29;20034;-62
2023/07/02 06:29:24;;;;;;;6.75;1.70;;;20.50;99.90;;;;;;4924032;29;20157;-62
2023/07/02 06:31:50;;;;;;;4.60;1.85;;;20.50;99.90;;;;;;4927269;29;20050;-62
2023/07/02 06:34:16;;;;;;;3.17;1.77;;;20.60;99.90;;;;;;4927578;29;20040;-62
2023/07/02 06:36:42;;;;;;;2.83;1.98;;;20.70;99.90;;;;;;4924966;29;20381;-62
2023/07/02 06:39:11;;;;;;;4.35;1.90;;;20.90;99.90;;;;;;4925527;29;20027;-63
2023/07/02 06:41:37;;;;;;;5.65;2.08;;;21.00;99.90;;;;;;4922105;29;20032;-62
2023/07/02 06:44:03;;;;;;;5.05;2.00;;;21.10;99.90;;;;;;4923044;29;20626;-62
2023/07/02 06:46:29;;;;;;;6.78;2.00;;;21.10;99.90;;;;;;4920109;29;20147;-62
2023/07/02 06:48:56;;;;;;;5.35;2.10;;;21.20;99.90;;;;;;4924278;29;20039;-62
2023/07/02 06:51:22;;;;;;;5.03;1.90;;;21.10;99.60;;;;;;4927651;29;20050;-62
2023/07/02 06:53:48;;;;;;;6.95;1.88;;;21.00;99.90;;;;;;4925324;29;20040;-62
2023/07/02 06:56:14;;;;;;;2.13;1.67;;;21.00;99.90;;;;;;4925477;29;20403;-62
2023/07/02 06:58:42;;;;;;;4.50;1.95;;;20.90;99.90;;;;;;4922039;29;20039;-62
2023/07/02 07:01:08;;;;;;;4.28;1.85;;;21.00;99.90;;;;;;4923187;29;20032;-62
2023/07/02 07:03:37;;;;;;;3.60;2.10;;;21.10;99.90;;;;;;4919038;29;20043;-62
2023/07/02 07:06:03;;;;;;;3.65;1.80;;;21.10;99.90;;;;;;4921010;29;20048;-61
2023/07/02 07:08:29;;;;;;;4.03;2.10;;;21.20;99.90;;;;;;4928205;29;20103;-62
2023/07/02 07:10:55;;;;;;;3.58;2.03;;;21.10;99.90;;;;;;4925730;29;20039;-62
2023/07/02 07:13:20;;;;;;;2.05;1.52;;;21.10;99.90;;;;;;4925676;29;20035;-62
2023/07/02 07:15:46;;;;;;;4.10;1.80;;;21.00;99.90;;;;;;4922113;29;20762;-62
2023/07/02 07:18:13;;;;;;;2.50;1.90;;;21.10;99.90;;;;;;4922178;29;20091;-62
2023/07/02 07:20:41;;;;;;;3.80;1.80;;;21.20;99.90;;;;;;4919326;29;20405;-61
2023/07/02 07:23:07;;;;;;;4.45;1.98;;;21.30;99.80;;;;;;4918737;29;20550;-62
2023/07/02 07:25:33;;;;;;;4.25;2.00;;;21.40;99.70;;;;;;4927967;29;20115;-62
2023/07/02 07:28:02;;;;;;;3.03;2.00;;;21.40;99.40;;;;;;4925789;29;20396;-61
2023/07/02 07:30:27;;;;;;;3.53;1.95;;;21.30;99.50;;;;;;4925061;29;20559;-62
2023/07/02 07:32:53;;;;;;;2.45;1.80;;;21.20;99.40;;;;;;4922605;29;20047;-61
2023/07/02 07:35:22;;;;;;;3.63;2.08;;;21.00;99.10;;;;;;4922805;29;20110;-62
2023/07/02 07:37:48;;;;;;;5.28;1.92;;;21.00;99.90;;;;;;4919795;29;20075;-61
2023/07/02 07:40:15;;;;;;;3.50;2.55;;;20.90;99.90;;;;;;4920429;29;20040;-62
2023/07/02 07:42:44;;;;;;;2.50;1.80;;;20.80;99.70;;;;;;4926133;29;20035;-61
2023/07/02 07:45:11;;;;;;;3.85;2.20;;;20.70;99.70;;;;;;4933014;29;20748;-62
2023/07/02 07:47:37;;;;;;;3.08;1.70;;;20.60;99.90;;;;;;4928077;29;20601;-62
2023/07/02 07:50:08;;;;;;;5.35;2.30;;;20.50;99.90;;;;;;4907007;29;20122;-62
2023/07/02 07:52:34;;;;;;;5.05;2.22;;;20.50;99.90;;;;;;4919962;29;20141;-61
2023/07/02 07:55:00;;;;;;;3.90;2.30;;;20.50;99.90;;;;;;4921821;29;20040;-61
2023/07/02 07:57:26;;;;;;;3.25;2.20;;;20.40;99.90;;;;;;4921183;29;20035;-62
2023/07/02 07:59:51;;;;;;;4.72;2.72;;;20.40;99.90;;;;;;4927678;29;20051;-61
2023/07/02 08:02:17;;;;;;;3.72;2.63;;;20.40;99.90;;;;;;4927669;29;20027;-61
2023/07/02 08:04:43;;;;;;;4.50;2.53;;;20.50;99.50;;;;;;4927286;29;20035;-61
2023/07/02 08:07:09;;;;;;;9.65;3.30;;;20.50;99.60;;;;;;4927522;29;20078;-62
2023/07/02 08:09:35;;;;;;;5.43;2.63;;;20.40;99.60;;;;;;4927481;29;20040;-61
2023/07/02 08:12:00;;;;;;;6.43;2.72;;;20.40;99.40;;;;;;4926869;29;20057;-62
2023/07/02 08:14:26;;;;;;;5.25;2.83;;;20.30;99.90;;;;;;4922284;29;20135;-61
2023/07/02 08:16:52;;;;;;;5.55;3.03;;;20.40;99.20;;;;;;4922119;29;20035;-61
2023/07/02 08:19:18;;;;;;;6.25;3.10;;;20.30;98.30;;;;;;4926572;29;20110;-61
2023/07/02 08:21:43;;;;;;;7.05;3.17;;;20.30;97.50;;;;;;4924498;29;20900;-62
2023/07/02 08:24:09;;;;;;;13.77;3.78;;;20.10;97.00;;;;;;4902783;29;20028;-64
2023/07/02 08:26:37;;;;;;;8.55;3.28;;;20.10;96.80;;;;;;4920305;29;20040;-61
2023/07/02 08:29:02;;;;;;;5.50;3.40;;;20.00;97.60;;;;;;4921806;29;20040;-62
2023/07/02 08:31:28;;;;;;;9.30;3.17;;;20.00;97.90;;;;;;4918910;29;20645;-61
2023/07/02 08:33:54;;;;;;;5.47;3.10;;;19.80;98.20;;;;;;4922889;29;20063;-62
2023/07/02 08:36:20;;;;;;;6.03;3.15;;;19.70;98.60;;;;;;4926529;29;20036;-61
2023/07/02 08:38:45;;;;;;;8.32;3.45;;;19.80;98.80;;;;;;4924810;29;20036;-62
2023/07/02 08:41:12;;;;;;;7.28;3.40;;;19.80;99.10;;;;;;4924390;29;20032;-62
2023/07/02 08:43:38;;;;;;;14.40;3.42;;;19.70;98.90;;;;;;4920768;29;20036;-64
2023/07/02 08:46:04;;;;;;;6.93;3.53;;;19.70;99.10;;;;;;4921791;29;20031;-62
2023/07/02 08:48:30;;;;;;;6.03;3.28;;;19.80;98.90;;;;;;4919038;29;20500;-62
2023/07/02 08:50:56;;;;;;;9.80;3.20;;;19.60;98.80;;;;;;4919116;29;20036;-61
2023/07/02 08:53:29;;;;;;;6.35;3.10;;;19.60;98.60;;;;;;4922198;29;20115;-62
2023/07/02 08:55:56;;;;;;;8.73;3.38;;;19.70;98.80;;;;;;4924306;29;20507;-61
2023/07/02 08:58:21;;;;;;;6.63;2.80;;;19.70;98.70;;;;;;4924268;29;20055;-61
2023/07/02 09:01:11;;;;;;;6.22;3.20;;;19.80;99.60;;;;;;4921182;29;20463;-61
2023/07/02 09:03:38;;;;;;;5.55;3.00;;;20.00;99.90;;;;;;4920756;29;20790;-61
2023/07/02 09:06:05;;;;;;;6.75;3.35;;;20.10;99.90;;;;;;4920659;29;20031;-61
2023/07/02 09:08:33;;;;;;;5.03;3.05;;;20.20;99.20;;;;;;4918227;29;20032;-62
2023/07/02 09:11:25;;;;;;;7.70;3.17;;;20.30;99.40;;;;;;4922203;29;20035;-62
2023/07/02 09:13:53;;;;;;;6.45;3.08;;;20.40;99.70;;;;;;4921201;29;20083;-62
2023/07/02 09:16:21;;;;;;;5.97;3.10;;;20.50;98.70;;;;;;4923153;29;20823;-62
2023/07/02 09:19:04;;;;;;;10.20;3.30;;;20.60;99.00;;;;;;4922590;29;20044;-62
2023/07/02 09:21:45;;;;;;;5.50;3.22;;;20.70;98.40;;;;;;4919935;29;20031;-62
2023/07/02 09:24:19;;;;;;;8.63;3.58;;;20.80;97.80;;;;;;4920785;29;20428;-62
2023/07/02 09:26:53;;;;;;;5.60;3.50;;;21.00;97.70;;;;;;4919169;29;20469;-62
2023/07/02 09:29:30;;;;;;;6.88;3.30;;;21.10;97.40;;;;;;4926055;29;20039;-62
2023/07/02 09:32:01;;;;;;;5.78;3.13;;;21.20;97.20;;;;;;4923149;29;20118;-63
2023/07/02 09:34:31;;;;;;;6.97;3.15;;;21.30;97.40;;;;;;4920959;29;20043;-62
2023/07/02 09:37:01;;;;;;;7.07;3.30;;;21.20;97.40;;;;;;4921322;29;20032;-63
2023/07/02 09:39:29;;;;;;;7.72;3.53;;;21.30;97.60;;;;;;4919609;29;20086;-62
2023/07/02 09:41:57;;;;;;;6.13;3.60;;;21.40;97.30;;;;;;4918578;29;20115;-63
2023/07/02 09:44:30;;;;;;;7.50;3.30;;;21.50;97.40;;;;;;4917216;29;20075;-63
2023/07/02 09:47:07;;;;;;;9.43;3.72;;;21.60;97.20;;;;;;4920013;29;20071;-63
2023/07/02 09:50:02;;;;;;;6.60;3.58;;;21.70;98.20;;;;;;4921928;29;20507;-63
2023/07/02 09:52:28;;;;;;;10.02;4.10;;;21.80;96.70;;;;;;4916615;29;20099;-63
2023/07/02 09:54:54;;;;;;;7.07;3.50;;;21.80;96.90;;;;;;4922700;29;20555;-64
2023/07/02 09:57:20;;;;;;;11.27;4.57;;;21.90;96.60;;;;;;4919982;29;20044;-63
2023/07/02 09:59:45;;;;;;;9.02;4.30;;;22.10;95.80;;;;;;4917515;29;20027;-63
2023/07/02 10:02:13;;;;;;;11.32;4.43;;;22.30;95.30;;;;;;4921444;29;20066;-64
2023/07/02 10:04:46;;;;;;;8.13;3.85;;;22.30;93.40;;;;;;4922092;29;20047;-62
2023/07/02 10:07:25;;;;;;;10.45;4.57;;;22.20;94.10;;;;;;4924246;29;20719;-62
2023/07/02 10:09:50;;;;;;;8.45;4.40;;;22.20;94.70;;;;;;4921911;29;20052;-62
2023/07/02 10:12:23;;;;;;;6.68;4.32;;;22.20;94.80;;;;;;4922145;29;20035;-63
2023/07/02 10:14:55;;;;;;;13.95;4.68;;;22.20;94.70;;;;;;4918759;29;20040;-62
2023/07/02 10:17:32;;;;;;;10.02;4.57;;;22.30;95.00;;;;;;4921212;29;20067;-62
2023/07/02 10:20:00;;;;;;;14.10;4.65;;;22.30;95.00;;;;;;4918062;29;20035;-62
2023/07/02 10:22:26;;;;;;;9.18;4.55;;;22.30;93.30;;;;;;4903815;29;20036;-62
2023/07/02 10:25:03;;;;;;;9.57;4.20;;;22.40;94.90;;;;;;4923413;29;20040;-62
2023/07/02 10:27:42;;;;;;;9.20;4.75;;;22.50;94.40;;;;;;4922290;29;20039;-62
2023/07/02 10:30:09;;;;;;;11.98;4.53;;;22.60;92.80;;;;;;4920400;29;20027;-62
2023/07/02 10:32:37;;;;;;;13.55;4.93;;;22.70;92.00;;;;;;4918089;29;20183;-62
2023/07/02 10:35:16;;;;;;;8.27;4.57;;;22.80;92.20;;;;;;4919379;29;20043;-63
2023/07/02 10:37:43;;;;;;;10.70;4.45;;;22.80;91.80;;;;;;4914992;29;20088;-62
2023/07/02 10:40:10;;;;;;;9.13;4.68;;;22.90;92.50;;;;;;4925218;29;20495;-62
2023/07/02 10:42:50;;;;;;;12.38;4.50;;;22.90;91.40;;;;;;4922835;29;20518;-63
2023/07/02 10:45:16;;;;;;;11.48;4.90;;;22.80;89.80;;;;;;4921330;29;20489;-66
2023/07/02 10:47:42;;;;;;;14.10;5.35;;;22.70;89.40;;;;;;4919493;29;20036;-63
2023/07/02 10:50:19;;;;;;;13.07;4.75;;;22.60;90.10;;;;;;4896332;29;20475;-62
2023/07/02 10:52:46;;;;;;;12.20;4.82;;;22.60;91.20;;;;;;4918901;28;20138;-63
2023/07/02 10:55:26;;;;;;;16.23;5.20;;;22.80;90.50;;;;;;4921209;29;20032;-62
2023/07/02 10:58:04;;;;;;;14.52;5.22;;;23.20;88.50;;;;;;4926549;29;20573;-62
2023/07/02 11:00:31;;;;;;;12.60;5.45;;;23.40;87.20;;;;;;4924558;29;20027;-62
2023/07/02 11:02:56;;;;;;;12.85;4.72;;;23.70;85.00;;;;;;4925237;29;20039;-62
2023/07/02 11:05:22;;;;;;;15.75;5.10;;;23.70;82.20;;;;;;4924528;29;20080;-62
2023/07/02 11:07:54;;;;;;;11.95;5.15;;;23.50;80.90;;;;;;4921906;29;20028;-62
2023/07/02 11:10:20;;;;;;;11.13;4.78;;;23.30;81.00;;;;;;4914014;29;20055;-62
2023/07/02 11:12:46;;;;;;;17.48;5.07;;;23.20;83.40;;;;;;4918645;29;20070;-62
2023/07/02 11:15:14;;;;;;;12.70;4.82;;;23.30;83.30;;;;;;4924727;29;20031;-62
2023/07/02 11:17:41;;;;;;;10.00;4.70;;;23.30;80.50;;;;;;4925895;29;20036;-62
2023/07/02 11:20:11;;;;;;;12.95;4.45;;;23.40;77.80;;;;;;4925176;29;20068;-62
2023/07/02 11:22:38;;;;;;;11.18;4.82;;;23.30;76.50;;;;;;4922253;29;20038;-66
2023/07/02 11:25:17;;;;;;;12.48;4.82;;;23.30;77.90;;;;;;4923718;29;20031;-62
2023/07/02 11:27:43;;;;;;;11.30;4.50;;;23.30;78.10;;;;;;4919418;29;20044;-62
2023/07/02 11:30:10;;;;;;;10.95;4.70;;;23.40;78.30;;;;;;4921180;29;20031;-62
2023/07/02 11:32:53;;;;;;;10.50;4.65;;;23.40;76.10;;;;;;4924216;29;20039;-63
2023/07/02 11:35:20;;;;;;;10.98;4.82;;;23.50;78.20;;;;;;4925134;29;20459;-62
2023/07/02 11:37:48;;;;;;;12.48;5.05;;;23.60;78.70;;;;;;4924701;29;20047;-62
2023/07/02 11:40:14;;;;;;;12.40;4.72;;;23.70;79.70;;;;;;4924447;29;20095;-62
2023/07/02 11:42:41;;;;;;;8.93;4.50;;;23.80;80.10;;;;;;4920369;29;20412;-62
2023/07/02 11:45:07;;;;;;;12.13;4.90;;;23.80;80.50;;;;;;4922234;29;20044;-62
2023/07/02 11:47:33;;;;;;;12.25;4.88;;;23.80;80.70;;;;;;4919784;29;20186;-62
2023/07/02 11:49:59;;;;;;;10.88;5.47;;;23.90;79.60;;;;;;4923288;29;20564;-62
2023/07/02 11:52:25;;;;;;;11.02;5.13;;;24.10;78.90;;;;;;4927003;29;20032;-62
2023/07/02 11:54:51;;;;;;;10.93;5.10;;;24.20;77.70;;;;;;4926106;29;20043;-62
2023/07/02 11:57:16;;;;;;;11.02;5.00;;;24.30;77.30;;;;;;4924291;29;20039;-62
2023/07/02 11:59:42;;;;;;;12.13;4.72;;;24.30;74.70;;;;;;4921409;29;20068;-62
2023/07/02 12:02:08;;;;;;;14.55;5.18;;;24.30;73.90;;;;;;4921602;29;20028;-62
2023/07/02 12:04:34;;;;;;;11.23;4.85;;;24.40;71.10;;;;;;4917239;29;20567;-62
2023/07/02 12:07:01;;;;;;;10.25;4.90;;;24.50;66.20;;;;;;4919779;29;20115;-62
2023/07/02 12:09:27;;;;;;;11.75;4.85;;;24.40;65.20;;;;;;4927191;29;20384;-62
2023/07/02 12:11:53;;;;;;;9.63;4.63;;;24.30;67.00;;;;;;4923882;29;20487;-62
2023/07/02 12:14:19;;;;;;;17.25;5.35;;;24.50;68.50;;;;;;4928038;29;20036;-62
2023/07/02 12:16:44;;;;;;;10.07;4.70;;;24.50;66.20;;;;;;4926614;29;20040;-62
2023/07/02 12:19:10;;;;;;;14.40;5.35;;;24.40;65.40;;;;;;4926327;29;20118;-62
2023/07/02 12:21:37;;;;;;;10.32;4.80;;;24.40;66.60;;;;;;4919309;29;20089;-62
2023/07/02 12:24:08;;;;;;;10.88;5.15;;;24.20;65.80;;;;;;4924343;29;20047;-62
2023/07/02 12:26:39;;;;;;;13.77;4.93;;;24.00;67.70;;;;;;4923185;29;20053;-62
2023/07/02 12:29:04;;;;;;;11.75;5.05;;;23.90;69.20;;;;;;4921679;29;20059;-62
2023/07/02 12:31:31;;;;;;;14.80;5.53;;;23.90;71.40;;;;;;4920860;29;20215;-63
2023/07/02 12:33:57;;;;;;;12.52;5.15;;;23.90;71.90;;;;;;4921163;29;20579;-62
2023/07/02 12:36:23;;;;;;;12.50;4.65;;;24.00;70.50;;;;;;4920685;29;20130;-63
2023/07/02 12:38:49;;;;;;;12.15;5.07;;;24.00;69.40;;;;;;4918699;29;20095;-62
2023/07/02 12:41:15;;;;;;;16.08;4.95;;;23.90;67.40;;;;;;4917458;29;20035;-62
2023/07/02 12:43:41;;;;;;;12.93;5.35;;;23.90;65.60;;;;;;4922454;29;20411;-62
2023/07/02 12:46:07;;;;;;;12.40;5.40;;;23.80;66.00;;;;;;4924231;29;20137;-67
2023/07/02 12:48:33;;;;;;;10.75;5.43;;;23.70;64.70;;;;;;4922372;29;20035;-62